Rechercher aéroport 
image banner adimage banner adimage banner ad
image banner ad

8CA4 - Sce Eastern Division

Situé à San Bernardino, United States

ICAO - 8CA4, IATA -

Données fournies par Airmate  

Information générale

Coordonnées: N34°6'17" W117°21'6"
Élévation : 1205 feet MSL.
Variation magnétique : 14° East
Voir autres Aéroports à California

Données opérationnelles

Special qualification required
Heure actuelle UTC:
Heure actuelle locale:
Météo à : KSBD - San Bernardino Intl ( 11 km )
METAR: KSBD 210050Z 27007KT 5SM HZ CLR 33/08 A2989
TAF: KSBD 202324Z 2100/2124 26010KT P6SM SKC FM210400 VRB04KT P6SM SKC FM212000 26010KT P6SM SKC
Voir NOTAMs / SUP AIP / TFR affectant cet aéroport [VIEW]
Fréquences de communication: [VIEW]

Pistes:

Coordonnées de l'aéroport

Adresse: San Bernardino United States

Vue satellite de 8CA4